American Glory — WDA8860 — position and weather

sailwx.info

Track history (hours):
 
Tides and Currents Weather Stations Pressure Air Temp Water Temp Dewpoint Dewpoint Depression Visibility Wind Speed Wind Dir Waves Ship Positions

American Glory

More information available from US FCC via Universal Licensing System and Coast Guard Vessel Documentation Center.

Last reported at 2014-Sep-13 18:33 UTC. Time now 2014-Sep-16 00:53 UTC.
Position N 43°40' W 069°57'.

Length 54 m; draft 2.1 m.

Type: Passenger vessel. MMSI: 366858820.

Date/timePositionNaut miles runAvg speedWind from/ knotsBaromVisibWave heightAir tempDewpointWater temp
2014-Sep-13 18:33N 43°40' W 069°57'8 8.4
2014-Sep-13 17:33N 43°39' W 070°09'3 0.1
2014-Sep-12 16:24N 43°39' W 070°13'8 8.1
2014-Sep-12 15:27N 43°40' W 070°03'9 9.4
2014-Sep-12 14:33N 43°41' W 069°51'  
2014-Sep-07 08:33N 43°37' W 069°58'7 7.3
2014-Sep-07 07:33N 43°35' W 070°08'64 8.6
2014-Sep-07 00:06N 42°35' W 070°39'2 0.2
2014-Sep-06 13:29N 42°37' W 070°39'0 0.0
2014-Sep-06 12:32N 42°37' W 070°39'0 0.0
2014-Sep-06 11:33N 42°37' W 070°39'0 0.1
2014-Sep-06 10:28N 42°37' W 070°39'7 7.0
2014-Sep-06 09:28N 42°30' W 070°41'6 6.7
2014-Sep-06 08:31N 42°23' W 070°42'18 6.1
2014-Sep-06 05:31N 42°06' W 070°35'6 6.3
2014-Sep-06 04:32N 42°00' W 070°32'13 6.6
2014-Sep-06 02:31N 41°47' W 070°29'7 6.1
2014-Sep-06 01:25N 41°44' W 070°38'8 7.2
2014-Sep-06 00:19N 41°37' W 070°42'6 8.1
2014-Sep-05 23:33N 41°32' W 070°46'6 5.5
2014-Sep-05 22:33N 41°26' W 070°48'8 8.1
2014-Sep-05 21:33N 41°29' W 070°38'2 2.4
2014-Sep-05 20:32N 41°27' W 070°36'0 0.0
2014-Sep-05 19:33N 41°27' W 070°36'0 0.0
2014-Sep-05 18:31N 41°27' W 070°36'0 0.0
2014-Sep-05 17:33N 41°27' W 070°36'0 0.0
2014-Sep-05 16:33N 41°27' W 070°36'0 0.0
2014-Sep-05 15:33N 41°27' W 070°36'0 0.0
2014-Sep-05 14:33N 41°27' W 070°36'0 0.0
2014-Sep-05 13:33N 41°27' W 070°36'0 0.0
2014-Sep-05 12:33N 41°27' W 070°36'0 0.0
2014-Sep-05 11:33N 41°27' W 070°36'0 0.0
2014-Sep-05 10:33N 41°27' W 070°36'0 0.0
2014-Sep-05 09:33N 41°27' W 070°36'0 0.0
2014-Sep-05 08:33N 41°27' W 070°36'0 0.0
2014-Sep-05 07:33N 41°27' W 070°36'0 0.0
2014-Sep-05 06:33N 41°27' W 070°36'0 0.0
2014-Sep-05 05:33N 41°27' W 070°36'0 0.0
2014-Sep-05 04:33N 41°27' W 070°36'0 0.0
2014-Sep-05 03:33N 41°27' W 070°36'0 0.0
2014-Sep-05 02:33N 41°27' W 070°36'0 0.0
2014-Sep-05 01:33N 41°27' W 070°36'0 0.0
2014-Sep-05 00:33N 41°27' W 070°36'4 3.6
2014-Sep-04 23:33N 41°28' W 070°31'9 9.3
2014-Sep-04 22:33N 41°27' W 070°19'9 8.8
2014-Sep-04 21:33N 41°22' W 070°09'6 0.9
2014-Sep-04 15:24N 41°17' W 070°05'0 0.0
2014-Sep-04 13:24N 41°17' W 070°05'0 0.0
2014-Sep-04 11:33N 41°17' W 070°05'1 1.2
2014-Sep-04 10:33N 41°18' W 070°06'4 4.2
2014-Sep-04 09:29N 41°22' W 070°09'7 3.6
2014-Sep-04 07:31N 41°26' W 070°16'16 3.8
2014-Sep-04 03:16N 41°30' W 070°38'3 3.9
2014-Sep-04 02:33N 41°29' W 070°41'3 3.4
2014-Sep-04 01:33N 41°27' W 070°45'4 3.0
2014-Sep-04 00:04N 41°27' W 070°51'12 6.4
2014-Sep-03 22:09N 41°27' W 071°07'4 7.2
2014-Sep-03 21:32N 41°28' W 071°13'12 5.5
2014-Sep-03 19:27N 41°38' W 071°18'  
Track history (hours):
 
Tides and Currents Weather Stations Pressure Air Temp Water Temp Dewpoint Dewpoint Depression Visibility Wind Speed Wind Dir Waves Ship Positions

American Glory

More information available from US FCC via Universal Licensing System and Coast Guard Vessel Documentation Center.

Last reported at 2014-Sep-13 18:33 UTC. Time now 2014-Sep-16 00:53 UTC.
Position N 43°40' W 069°57'.

Length 54 m; draft 2.1 m.

Type: Passenger vessel. MMSI: 366858820.

Date/timePositionNaut miles runAvg speedWind from/ knotsBaromVisibWave heightAir tempDewpointWater temp
2014-Sep-13 18:33N 43°40' W 069°57'8 8.4
2014-Sep-13 17:33N 43°39' W 070°09'3 0.1
2014-Sep-12 16:24N 43°39' W 070°13'8 8.1
2014-Sep-12 15:27N 43°40' W 070°03'9 9.4
2014-Sep-12 14:33N 43°41' W 069°51'  
2014-Sep-07 08:33N 43°37' W 069°58'7 7.3
2014-Sep-07 07:33N 43°35' W 070°08'64 8.6
2014-Sep-07 00:06N 42°35' W 070°39'2 0.2
2014-Sep-06 13:29N 42°37' W 070°39'0 0.0
2014-Sep-06 12:32N 42°37' W 070°39'0 0.0
2014-Sep-06 11:33N 42°37' W 070°39'0 0.1
2014-Sep-06 10:28N 42°37' W 070°39'7 7.0
2014-Sep-06 09:28N 42°30' W 070°41'6 6.7
2014-Sep-06 08:31N 42°23' W 070°42'18 6.1
2014-Sep-06 05:31N 42°06' W 070°35'6 6.3
2014-Sep-06 04:32N 42°00' W 070°32'13 6.6
2014-Sep-06 02:31N 41°47' W 070°29'7 6.1
2014-Sep-06 01:25N 41°44' W 070°38'8 7.2
2014-Sep-06 00:19N 41°37' W 070°42'6 8.1
2014-Sep-05 23:33N 41°32' W 070°46'6 5.5
2014-Sep-05 22:33N 41°26' W 070°48'8 8.1
2014-Sep-05 21:33N 41°29' W 070°38'2 2.4
2014-Sep-05 20:32N 41°27' W 070°36'0 0.0
2014-Sep-05 19:33N 41°27' W 070°36'0 0.0
2014-Sep-05 18:31N 41°27' W 070°36'0 0.0
2014-Sep-05 17:33N 41°27' W 070°36'0 0.0
2014-Sep-05 16:33N 41°27' W 070°36'0 0.0
2014-Sep-05 15:33N 41°27' W 070°36'0 0.0
2014-Sep-05 14:33N 41°27' W 070°36'0 0.0
2014-Sep-05 13:33N 41°27' W 070°36'0 0.0
2014-Sep-05 12:33N 41°27' W 070°36'0 0.0
2014-Sep-05 11:33N 41°27' W 070°36'0 0.0
2014-Sep-05 10:33N 41°27' W 070°36'0 0.0
2014-Sep-05 09:33N 41°27' W 070°36'0 0.0
2014-Sep-05 08:33N 41°27' W 070°36'0 0.0
2014-Sep-05 07:33N 41°27' W 070°36'0 0.0
2014-Sep-05 06:33N 41°27' W 070°36'0 0.0
2014-Sep-05 05:33N 41°27' W 070°36'0 0.0
2014-Sep-05 04:33N 41°27' W 070°36'0 0.0
2014-Sep-05 03:33N 41°27' W 070°36'0 0.0
2014-Sep-05 02:33N 41°27' W 070°36'0 0.0
2014-Sep-05 01:33N 41°27' W 070°36'0 0.0
2014-Sep-05 00:33N 41°27' W 070°36'4 3.6
2014-Sep-04 23:33N 41°28' W 070°31'9 9.3
2014-Sep-04 22:33N 41°27' W 070°19'9 8.8
2014-Sep-04 21:33N 41°22' W 070°09'6 0.9
2014-Sep-04 15:24N 41°17' W 070°05'0 0.0
2014-Sep-04 13:24N 41°17' W 070°05'0 0.0
2014-Sep-04 11:33N 41°17' W 070°05'1 1.2
2014-Sep-04 10:33N 41°18' W 070°06'4 4.2
2014-Sep-04 09:29N 41°22' W 070°09'7 3.6
2014-Sep-04 07:31N 41°26' W 070°16'16 3.8
2014-Sep-04 03:16N 41°30' W 070°38'3 3.9
2014-Sep-04 02:33N 41°29' W 070°41'3 3.4
2014-Sep-04 01:33N 41°27' W 070°45'4 3.0
2014-Sep-04 00:04N 41°27' W 070°51'12 6.4
2014-Sep-03 22:09N 41°27' W 071°07'4 7.2
2014-Sep-03 21:32N 41°28' W 071°13'12 5.5
2014-Sep-03 19:27N 41°38' W 071°18'  

Dump ship's entire track history